Time;durP1;ratioP1;P1;durP2;ratioP2;P2;SDS_P1;SDS_P2;PMS_P1;PMS_P2;Temp;Humidity;BMP_temperature;BMP_pressure;BME280_temperature;BME280_humidity;BME280_pressure;Samples;Min_cycle;Max_cycle;Signal;HPM_P1;HPM_P2
2023/03/26 00:01:04;;;;;;;;;;;;;;;7.74;100.00;100682.66;5022732;28;19971;-63
2023/03/26 00:03:30;;;;;;;;;;;;;;;7.72;100.00;100675.88;5025340;28;19917;-63
2023/03/26 00:06:04;;;;;;;;;;;;;;;7.70;100.00;100683.13;5020353;28;19924;-63
2023/03/26 00:08:30;;;;;;;;;;;;;;;7.66;100.00;100677.34;5028217;28;19923;-64
2023/03/26 00:10:55;;;;;;;;;;;;;;;7.64;100.00;100681.94;5020722;28;19913;-64
2023/03/26 00:13:20;;;;;;;;;;;;;;;7.59;100.00;100684.22;5024284;28;20598;-63
2023/03/26 00:15:45;;;;;;;;;;;;;;;7.55;100.00;100679.41;5022311;28;19968;-63
2023/03/26 00:18:10;;;;;;;;;;;;;;;7.51;100.00;100684.16;5028729;28;20036;-64
2023/03/26 00:20:37;;;;;;;;;;;;;;;7.50;100.00;100679.84;5023652;28;19936;-63
2023/03/26 00:23:02;;;;;;;;;;;;;;;7.49;100.00;100672.91;5025271;28;19913;-63
2023/03/26 00:25:27;;;;;;;;;;;;;;;7.46;100.00;100676.69;5026289;28;20414;-63
2023/03/26 00:27:52;;;;;;;;;;;;;;;7.44;100.00;100673.38;5022779;28;20004;-63
2023/03/26 00:30:18;;;;;;;;;;;;;;;7.41;100.00;100673.69;5023440;28;19919;-63
2023/03/26 00:32:43;;;;;;;;;;;;;;;7.40;100.00;100676.50;5025743;28;20019;-64
2023/03/26 00:35:09;;;;;;;;;;;;;;;7.38;100.00;100673.19;5027695;28;19925;-63
2023/03/26 00:37:35;;;;;;;;;;;;;;;7.34;100.00;100666.53;5028184;28;19917;-63
2023/03/26 00:40:06;;;;;;;;;;;;;;;7.31;100.00;100662.41;5022407;28;19913;-63
2023/03/26 00:42:32;;;;;;;;;;;;;;;7.29;100.00;100653.81;5025374;28;20410;-64
2023/03/26 00:44:57;;;;;;;;;;;;;;;7.27;100.00;100647.84;5020076;28;19924;-63
2023/03/26 00:47:26;;;;;;;;;;;;;;;7.25;100.00;100643.69;5028322;28;19921;-63
2023/03/26 00:49:52;;;;;;;;;;;;;;;7.25;100.00;100646.34;5026798;28;20520;-64
2023/03/26 00:52:20;;;;;;;;;;;;;;;7.23;100.00;100645.63;5025413;28;19917;-63
2023/03/26 00:54:45;;;;;;;;;;;;;;;7.18;99.66;100645.28;5028457;28;19917;-63
2023/03/26 00:57:12;;;;;;;;;;;;;;;7.12;100.00;100646.72;5023288;28;19997;-63
2023/03/26 00:59:37;;;;;;;;;;;;;;;7.09;99.84;100649.66;5020178;28;19967;-63
2023/03/26 01:02:03;;;;;;;;;;;;;;;7.04;99.75;100647.50;5027173;28;19921;-63
2023/03/26 01:04:29;;;;;;;;;;;;;;;7.01;100.00;100647.81;5018931;28;19963;-63
2023/03/26 01:07:00;;;;;;;;;;;;;;;7.01;100.00;100641.69;5018877;28;20511;-63
2023/03/26 01:09:31;;;;;;;;;;;;;;;7.02;100.00;100625.69;5021974;28;20008;-63
2023/03/26 01:11:57;;;;;;;;;;;;;;;7.02;100.00;100628.34;5022968;28;19918;-63
2023/03/26 01:14:23;;;;;;;;;;;;;;;7.03;100.00;100624.72;5027194;28;19983;-63
2023/03/26 01:16:53;;;;;;;;;;;;;;;7.05;100.00;100620.09;5024136;28;20012;-63
2023/03/26 01:19:19;;;;;;;;;;;;;;;7.06;100.00;100610.38;5025478;28;19924;-62
2023/03/26 01:21:46;;;;;;;;;;;;;;;7.08;100.00;100597.84;5015576;28;20298;-63
2023/03/26 01:24:12;;;;;;;;;;;;;;;7.08;100.00;100600.47;5025043;28;19995;-63
2023/03/26 01:26:45;;;;;;;;;;;;;;;7.07;100.00;100590.91;5022774;28;19964;-62
2023/03/26 01:29:17;;;;;;;;;;;;;;;7.04;100.00;100589.41;5018198;28;20008;-62
2023/03/26 01:31:53;;;;;;;;;;;;;;;7.00;100.00;100592.50;5024729;28;20505;-62
2023/03/26 01:34:21;;;;;;;;;;;;;;;6.95;100.00;100582.41;5018259;28;20406;-63
2023/03/26 01:36:56;;;;;;;;;;;;;;;6.92;100.00;100574.78;5023673;28;19923;-63
2023/03/26 01:39:26;;;;;;;;;;;;;;;6.86;100.00;100572.75;5020613;28;19987;-63
2023/03/26 01:41:56;;;;;;;;;;;;;;;6.82;100.00;100574.88;5019071;28;19944;-62
2023/03/26 01:44:21;;;;;;;;;;;;;;;6.82;100.00;100563.50;5015494;28;19945;-62
2023/03/26 01:46:47;;;;;;;;;;;;;;;6.80;100.00;100570.75;5022518;28;19963;-62
2023/03/26 01:49:12;;;;;;;;;;;;;;;6.80;100.00;100566.28;5026310;28;20345;-63
2023/03/26 01:51:38;;;;;;;;;;;;;;;6.81;100.00;100560.03;5027100;28;19924;-63
2023/03/26 01:54:04;;;;;;;;;;;;;;;6.80;100.00;100557.53;5027364;28;19925;-63
2023/03/26 01:56:40;;;;;;;;;;;;;;;6.76;100.00;100557.03;5023420;28;19917;-63
2023/03/26 01:59:17;;;;;;;;;;;;;;;6.71;100.00;100555.81;5017018;28;19928;-62
2023/03/26 02:01:43;;;;;;;;;;;;;;;6.66;100.00;100555.47;5024166;28;19921;-63
2023/03/26 02:04:11;;;;;;;;;;;;;;;6.60;100.00;100545.50;5023665;28;19917;-63
2023/03/26 02:06:57;;;;;;;;;;;;;;;6.55;100.00;100543.31;5025025;28;19932;-63
2023/03/26 02:09:24;;;;;;;;;;;;;;;6.50;100.00;100540.31;5015295;28;19917;-62
2023/03/26 02:11:50;;;;;;;;;;;;;;;6.47;100.00;100535.34;5018312;28;19917;-63
2023/03/26 02:14:15;;;;;;;;;;;;;;;6.46;100.00;100531.03;5027383;28;19945;-63
2023/03/26 02:16:44;;;;;;;;;;;;;;;6.43;100.00;100526.91;5024628;28;19960;-63
2023/03/26 02:19:14;;;;;;;;;;;;;;;6.45;100.00;100526.75;5029089;28;20320;-63
2023/03/26 02:21:39;;;;;;;;;;;;;;;6.45;100.00;100521.47;5026615;28;19913;-63
2023/03/26 02:24:04;;;;;;;;;;;;;;;6.43;100.00;100513.72;5026522;28;19928;-63
2023/03/26 02:26:30;;;;;;;;;;;;;;;6.43;100.00;100516.34;5024445;28;19982;-62
2023/03/26 02:28:57;;;;;;;;;;;;;;;6.44;100.00;100511.91;5027940;28;19921;-62
2023/03/26 02:31:25;;;;;;;;;;;;;;;6.45;100.00;100514.38;5024566;28;20401;-63
2023/03/26 02:33:50;;;;;;;;;;;;;;;6.44;100.00;100504.81;5026430;28;19983;-63
2023/03/26 02:36:17;;;;;;;;;;;;;;;6.45;100.00;100513.56;5028056;28;19996;-62
2023/03/26 02:38:42;;;;;;;;;;;;;;;6.44;100.00;100509.25;5024500;28;19921;-63
2023/03/26 02:41:07;;;;;;;;;;;;;;;6.44;100.00;100499.53;5022798;28;20290;-63
2023/03/26 02:43:32;;;;;;;;;;;;;;;6.42;100.00;100501.50;5028659;28;19924;-63
2023/03/26 02:45:57;;;;;;;;;;;;;;;6.41;100.00;100493.75;5024872;28;20276;-62
2023/03/26 02:48:23;;;;;;;;;;;;;;;6.39;100.00;100496.53;5026337;28;19925;-62
2023/03/26 02:50:53;;;;;;;;;;;;;;;6.38;100.00;100494.06;5035588;28;20407;-63
2023/03/26 02:53:18;;;;;;;;;;;;;;;6.36;100.00;100488.94;5022555;28;19921;-62
2023/03/26 02:55:44;;;;;;;;;;;;;;;6.38;100.00;100480.88;5028151;28;19925;-63
2023/03/26 02:58:11;;;;;;;;;;;;;;;6.37;100.00;100480.03;5026677;28;20333;-63
2023/03/26 03:00:36;;;;;;;;;;;;;;;6.38;100.00;100479.06;5027988;28;20611;-63
2023/03/26 03:03:03;;;;;;;;;;;;;;;6.39;100.00;100470.16;5020340;28;20375;-63
2023/03/26 03:05:30;;;;;;;;;;;;;;;6.38;100.00;100471.16;5025143;28;19932;-63
2023/03/26 03:07:56;;;;;;;;;;;;;;;6.40;100.00;100465.72;5025396;28;20005;-63
2023/03/26 03:10:22;;;;;;;;;;;;;;;6.38;100.00;100460.59;5029051;28;20418;-63
2023/03/26 03:12:47;;;;;;;;;;;;;;;6.40;100.00;100450.72;5025164;28;19917;-62
2023/03/26 03:15:12;;;;;;;;;;;;;;;6.43;100.00;100452.22;5012581;28;20410;-63
2023/03/26 03:17:38;;;;;;;;;;;;;;;6.44;100.00;100449.44;5022039;28;19925;-62
2023/03/26 03:20:05;;;;;;;;;;;;;;;6.46;100.00;100442.19;5022736;28;20172;-62
2023/03/26 03:22:30;;;;;;;;;;;;;;;6.50;100.00;100440.91;5023143;28;19925;-63
2023/03/26 03:24:56;;;;;;;;;;;;;;;6.54;100.00;100436.13;5014453;28;19919;-62
2023/03/26 03:27:22;;;;;;;;;;;;;;;6.52;100.00;100424.91;5024440;28;20026;-63
2023/03/26 03:29:47;;;;;;;;;;;;;;;6.59;100.00;100422.47;5025492;28;19960;-63
2023/03/26 03:32:13;;;;;;;;;;;;;;;6.60;100.00;100421.50;5025515;28;19952;-63
2023/03/26 03:34:38;;;;;;;;;;;;;;;6.61;100.00;100421.34;5015318;28;20147;-63
2023/03/26 03:37:03;;;;;;;;;;;;;;;6.63;100.00;100421.19;5025857;28;19920;-62
2023/03/26 03:39:29;;;;;;;;;;;;;;;6.64;100.00;100420.19;5023274;28;19975;-63
2023/03/26 03:41:54;;;;;;;;;;;;;;;6.63;100.00;100424.63;5022639;28;20289;-62
2023/03/26 03:44:19;;;;;;;;;;;;;;;6.65;100.00;100416.56;5025436;28;19924;-63
2023/03/26 03:46:44;;;;;;;;;;;;;;;6.65;100.00;100412.16;5022427;28;19917;-64
2023/03/26 03:49:09;;;;;;;;;;;;;;;6.66;100.00;100411.16;5026487;28;20477;-63
2023/03/26 03:51:35;;;;;;;;;;;;;;;6.68;100.00;100405.72;5024566;28;19925;-64
2023/03/26 03:54:00;;;;;;;;;;;;;;;6.72;100.00;100407.06;5027799;28;19927;-63
2023/03/26 03:56:25;;;;;;;;;;;;;;;6.72;100.00;100405.25;5020360;28;19988;-63
2023/03/26 03:58:51;;;;;;;;;;;;;;;6.72;100.00;100399.97;5014058;28;19920;-63
2023/03/26 04:01:17;;;;;;;;;;;;;;;6.74;100.00;100402.47;5024329;28;19987;-63
2023/03/26 04:03:45;;;;;;;;;;;;;;;6.73;100.00;100390.25;5028270;28;19917;-65
2023/03/26 04:06:11;;;;;;;;;;;;;;;6.75;100.00;100390.91;5025185;28;19924;-63
2023/03/26 04:08:36;;;;;;;;;;;;;;;6.75;100.00;100386.47;5004102;28;20008;-63
2023/03/26 04:11:01;;;;;;;;;;;;;;;6.77;100.00;100386.31;5019161;28;20379;-63
2023/03/26 04:13:26;;;;;;;;;;;;;;;6.78;100.00;100383.50;5026307;28;19975;-63
2023/03/26 04:15:52;;;;;;;;;;;;;;;6.80;100.00;100378.09;5023944;28;20369;-62
2023/03/26 04:18:17;;;;;;;;;;;;;;;6.81;100.00;100370.00;5012000;28;20330;-63
2023/03/26 04:20:46;;;;;;;;;;;;;;;6.82;100.00;100370.81;5024592;28;20003;-63
2023/03/26 04:23:12;;;;;;;;;;;;;;;6.83;100.00;100361.94;5024076;28;20465;-63
2023/03/26 04:25:38;;;;;;;;;;;;;;;6.84;100.00;100351.22;5025797;28;20008;-63
2023/03/26 04:28:07;;;;;;;;;;;;;;;6.86;100.00;100345.78;5024442;28;20003;-63
2023/03/26 04:30:33;;;;;;;;;;;;;;;6.90;100.00;100341.00;5020623;28;20386;-62
2023/03/26 04:33:02;;;;;;;;;;;;;;;6.96;100.00;100338.56;5016701;28;19944;-63
2023/03/26 04:35:33;;;;;;;;;;;;;;;7.01;99.98;100332.81;5027834;28;19913;-63
2023/03/26 04:37:58;;;;;;;;;;;;;;;7.02;100.00;100334.47;5025439;28;19928;-63
2023/03/26 04:40:23;;;;;;;;;;;;;;;7.04;100.00;100333.31;5025432;28;19932;-63
2023/03/26 04:42:48;;;;;;;;;;;;;;;7.07;100.00;100326.88;5018655;28;19921;-63
2023/03/26 04:45:15;;;;;;;;;;;;;;;7.08;100.00;100323.25;5017568;28;20365;-63
2023/03/26 04:47:40;;;;;;;;;;;;;;;7.11;99.97;100323.75;5023121;28;19917;-64
2023/03/26 04:50:07;;;;;;;;;;;;;;;7.13;99.97;100321.78;5027671;28;20553;-63
2023/03/26 04:52:32;;;;;;;;;;;;;;;7.17;99.87;100310.88;5024170;28;20638;-63
2023/03/26 04:54:57;;;;;;;;;;;;;;;7.19;99.73;100308.91;5020471;28;19917;-63
2023/03/26 04:57:28;;;;;;;;;;;;;;;7.23;99.98;100302.31;5020266;28;19917;-63
2023/03/26 04:59:53;;;;;;;;;;;;;;;7.25;99.62;100297.72;5021841;28;20007;-63
2023/03/26 05:02:19;;;;;;;;;;;;;;;7.29;99.91;100294.59;5019929;28;20044;-63
2023/03/26 05:04:44;;;;;;;;;;;;;;;7.31;99.81;100291.78;5010432;28;19926;-63
2023/03/26 05:07:10;;;;;;;;;;;;;;;7.32;99.82;100283.69;5022187;28;20306;-63
2023/03/26 05:09:35;;;;;;;;;;;;;;;7.35;99.67;100291.28;5020116;28;19918;-63
2023/03/26 05:12:01;;;;;;;;;;;;;;;7.37;99.35;100283.22;5024972;28;19913;-64
2023/03/26 05:14:26;;;;;;;;;;;;;;;7.38;99.62;100283.03;5010082;28;19921;-66
2023/03/26 05:16:52;;;;;;;;;;;;;;;7.40;99.27;100278.41;5018282;28;19995;-63
2023/03/26 05:19:17;;;;;;;;;;;;;;;7.42;99.44;100267.69;5020473;28;19917;-63
2023/03/26 05:21:42;;;;;;;;;;;;;;;7.42;99.42;100263.22;5022974;28;20399;-63
2023/03/26 05:24:07;;;;;;;;;;;;;;;7.44;99.47;100263.06;5020149;28;19925;-64
2023/03/26 05:26:33;;;;;;;;;;;;;;;7.45;99.05;100267.34;5018422;28;20348;-64
2023/03/26 05:28:58;;;;;;;;;;;;;;;7.44;99.27;100263.06;5025599;28;19913;-63
2023/03/26 05:31:25;;;;;;;;;;;;;;;7.44;99.13;100261.25;5027438;28;19913;-64
2023/03/26 05:33:51;;;;;;;;;;;;;;;7.44;99.12;100250.69;5019565;28;19975;-63
2023/03/26 05:36:17;;;;;;;;;;;;;;;7.47;99.25;100254.81;5027085;28;19917;-64
2023/03/26 05:38:46;;;;;;;;;;;;;;;7.47;99.14;100249.53;5021917;28;19956;-63
2023/03/26 05:41:11;;;;;;;;;;;;;;;7.46;99.26;100243.41;5019142;28;19921;-63
2023/03/26 05:43:37;;;;;;;;;;;;;;;7.45;99.28;100244.41;5017925;28;19959;-64
2023/03/26 05:46:02;;;;;;;;;;;;;;;7.44;98.85;100249.84;5023560;28;19979;-63
2023/03/26 05:48:27;;;;;;;;;;;;;;;7.44;99.25;100241.94;5024695;28;19924;-63
2023/03/26 05:50:54;;;;;;;;;;;;;;;7.45;99.37;100244.41;5030057;28;20000;-64
2023/03/26 05:53:20;;;;;;;;;;;;;;;7.45;99.30;100235.66;5028463;28;20448;-64
2023/03/26 05:55:49;;;;;;;;;;;;;;;7.44;99.01;100232.19;5026809;28;20443;-64
2023/03/26 05:58:14;;;;;;;;;;;;;;;7.43;99.25;100227.06;5025746;28;20169;-64
2023/03/26 06:00:39;;;;;;;;;;;;;;;7.43;99.29;100219.97;5026083;28;19917;-63
2023/03/26 06:03:05;;;;;;;;;;;;;;;7.43;99.44;100216.50;5023307;28;19945;-63
2023/03/26 06:05:36;;;;;;;;;;;;;;;7.43;99.46;100224.44;5027394;28;19921;-64
2023/03/26 06:08:01;;;;;;;;;;;;;;;7.43;99.50;100221.78;5025682;28;19917;-64
2023/03/26 06:10:26;;;;;;;;;;;;;;;7.42;99.54;100209.56;5023429;28;20402;-64
2023/03/26 06:12:51;;;;;;;;;;;;;;;7.43;99.67;100216.50;5028523;28;19917;-64
2023/03/26 06:15:17;;;;;;;;;;;;;;;7.43;99.33;100214.69;5007394;28;20075;-64
2023/03/26 06:17:42;;;;;;;;;;;;;;;7.45;99.41;100210.06;5028879;28;20382;-63
2023/03/26 06:20:07;;;;;;;;;;;;;;;7.46;99.41;100216.16;5027445;28;19928;-64
2023/03/26 06:22:32;;;;;;;;;;;;;;;7.47;99.10;100207.25;5020904;28;19917;-64
2023/03/26 06:24:58;;;;;;;;;;;;;;;7.48;99.44;100203.63;5015156;28;19917;-63
2023/03/26 06:27:23;;;;;;;;;;;;;;;7.49;99.78;100205.28;5017157;28;20299;-63
2023/03/26 06:29:48;;;;;;;;;;;;;;;7.49;99.55;100199.16;5021643;28;19921;-63
2023/03/26 06:32:13;;;;;;;;;;;;;;;7.47;99.67;100200.16;5015374;28;20039;-63
2023/03/26 06:34:39;;;;;;;;;;;;;;;7.49;99.87;100194.69;5020803;28;19932;-64
2023/03/26 06:37:04;;;;;;;;;;;;;;;7.51;99.70;100198.00;5025756;28;19924;-64
2023/03/26 06:39:29;;;;;;;;;;;;;;;7.53;99.68;100201.34;5028538;28;19917;-64
2023/03/26 06:41:54;;;;;;;;;;;;;;;7.55;99.10;100186.13;5020973;28;19927;-63
2023/03/26 06:44:20;;;;;;;;;;;;;;;7.55;99.28;100185.31;5027533;28;20309;-63
2023/03/26 06:46:45;;;;;;;;;;;;;;;7.56;98.99;100189.59;5025719;28;20003;-64
2023/03/26 06:49:10;;;;;;;;;;;;;;;7.58;98.85;100191.09;5022524;28;19917;-63
2023/03/26 06:51:38;;;;;;;;;;;;;;;7.57;98.87;100186.78;5025642;28;20013;-63
2023/03/26 06:54:03;;;;;;;;;;;;;;;7.58;98.64;100188.44;5024243;28;20406;-64
2023/03/26 06:56:28;;;;;;;;;;;;;;;7.57;98.68;100185.97;5022802;28;19932;-63
2023/03/26 06:58:53;;;;;;;;;;;;;;;7.57;98.71;100185.97;5027595;28;19928;-64
2023/03/26 07:01:18;;;;;;;;;;;;;;;7.56;98.74;100187.78;5018036;28;19967;-64
2023/03/26 07:03:43;;;;;;;;;;;;;;;7.56;98.38;100186.97;5017213;28;19925;-63
2023/03/26 07:06:09;;;;;;;;;;;;;;;7.57;98.62;100186.78;5026440;28;19940;-64
2023/03/26 07:08:34;;;;;;;;;;;;;;;7.56;98.59;100184.31;5028513;28;19971;-63
2023/03/26 07:10:59;;;;;;;;;;;;;;;7.54;98.48;100183.66;5019427;28;19932;-64
2023/03/26 07:13:24;;;;;;;;;;;;;;;7.56;98.41;100182.50;5024646;28;19929;-64
2023/03/26 07:15:50;;;;;;;;;;;;;;;7.54;98.16;100181.84;5020055;28;20367;-63
2023/03/26 07:18:15;;;;;;;;;;;;;;;7.54;98.26;100183.66;5019167;28;20543;-63
2023/03/26 07:20:41;;;;;;;;;;;;;;;7.53;98.34;100177.56;5023163;28;19987;-64
2023/03/26 07:23:06;;;;;;;;;;;;;;;7.53;97.94;100182.00;5022058;28;19965;-64
2023/03/26 07:25:32;;;;;;;;;;;;;;;7.52;98.27;100177.69;5022254;28;20463;-63
2023/03/26 07:28:02;;;;;;;;;;;;;;;7.53;98.55;100179.38;5020884;28;20387;-63
2023/03/26 07:30:46;;;;;;;;;;;;;;;7.52;98.91;100173.25;5023161;28;20441;-63
2023/03/26 07:33:18;;;;;;;;;;;;;;;7.55;99.01;100175.56;5026032;28;20004;-64
2023/03/26 07:36:06;;;;;;;;;;;;;;;7.56;98.96;100171.94;5018423;28;19932;-64
2023/03/26 07:38:40;;;;;;;;;;;;;;;7.57;99.04;100165.66;5020802;28;19917;-64
2023/03/26 07:41:11;;;;;;;;;;;;;;;7.58;99.53;100175.22;5016892;28;19917;-64
2023/03/26 07:43:51;;;;;;;;;;;;;;;7.61;99.13;100172.25;5017418;28;19918;-63
2023/03/26 07:46:22;;;;;;;;;;;;;;;7.62;99.52;100160.69;5024887;28;19913;-63
2023/03/26 07:48:48;;;;;;;;;;;;;;;7.62;99.77;100171.25;5018276;28;19925;-64
2023/03/26 07:51:14;;;;;;;;;;;;;;;7.63;99.80;100166.78;5025144;28;19917;-64
2023/03/26 07:53:39;;;;;;;;;;;;;;;7.65;99.32;100164.81;5021095;28;20416;-63
2023/03/26 07:56:10;;;;;;;;;;;;;;;7.66;99.33;100161.16;5025210;28;19932;-64
2023/03/26 07:58:51;;;;;;;;;;;;;;;7.66;99.34;100159.34;5026350;28;20434;-64
2023/03/26 08:01:55;;;;;;;;;;;;;;;7.64;99.29;100157.88;5014371;28;19968;-64
2023/03/26 08:04:30;;;;;;;;;;;;;;;7.65;99.88;100154.22;4934166;28;19919;-64
2023/03/26 08:07:02;;;;;;;;;;;;;;;7.65;99.30;100156.88;4942037;28;20013;-64
2023/03/26 08:09:30;;;;;;;;;;;;;;;7.65;99.67;100160.34;4983763;28;20398;-64
2023/03/26 08:11:57;;;;;;;;;;;;;;;7.65;99.54;100165.63;5022344;28;19917;-64
2023/03/26 08:14:39;;;;;;;;;;;;;;;7.66;99.80;100159.34;5018686;28;20283;-64
2023/03/26 08:17:19;;;;;;;;;;;;;;;7.65;100.00;100162.16;5026421;28;19921;-64
2023/03/26 08:19:44;;;;;;;;;;;;;;;7.63;100.00;100154.41;5025976;28;19923;-64
2023/03/26 08:22:12;;;;;;;;;;;;;;;7.64;100.00;100161.34;5020443;28;19921;-64
2023/03/26 08:24:42;;;;;;;;;;;;;;;7.65;100.00;100156.88;5026887;28;20004;-64
2023/03/26 08:27:12;;;;;;;;;;;;;;;7.66;100.00;100148.78;5028236;28;19913;-63
2023/03/26 08:29:54;;;;;;;;;;;;;;;7.68;100.00;100157.38;5019175;28;19917;-64
2023/03/26 08:32:19;;;;;;;;;;;;;;;7.68;100.00;100160.00;5020274;28;20457;-64
2023/03/26 08:34:45;;;;;;;;;;;;;;;7.69;100.00;100155.53;5021730;28;20606;-64
2023/03/26 08:37:10;;;;;;;;;;;;;;;7.70;100.00;100155.38;5022473;28;19913;-63
2023/03/26 08:39:37;;;;;;;;;;;;;;;7.73;100.00;100152.38;5026394;28;20294;-63
2023/03/26 08:42:27;;;;;;;;;;;;;;;7.74;100.00;100155.84;5025551;28;19913;-63
2023/03/26 08:44:56;;;;;;;;;;;;;;;7.73;100.00;100149.75;5017905;28;19921;-64
2023/03/26 08:47:27;;;;;;;;;;;;;;;7.74;100.00;100153.22;5024505;28;19936;-63
2023/03/26 08:49:52;;;;;;;;;;;;;;;7.74;100.00;100150.56;5010842;28;19913;-63
2023/03/26 08:52:35;;;;;;;;;;;;;;;7.77;100.00;100153.69;5026807;28;19913;-63
2023/03/26 08:55:35;;;;;;;;;;;;;;;7.68;100.00;100130.94;5028071;28;19921;-64
2023/03/26 08:58:19;;;;;;;;;;;;;;;7.84;100.00;100142.47;4970231;28;19913;-64
2023/03/26 09:00:56;;;;;;;;;;;;;;;7.86;100.00;100149.22;5020742;28;19921;-64
2023/03/26 09:03:27;;;;;;;;;;;;;;;7.89;100.00;100138.31;5011412;28;19920;-63
2023/03/26 09:06:07;;;;;;;;;;;;;;;7.92;100.00;100145.91;5015151;28;20429;-63
2023/03/26 09:08:32;;;;;;;;;;;;;;;7.93;100.00;100136.97;5019599;28;19925;-64
2023/03/26 09:11:17;;;;;;;;;;;;;;;7.95;100.00;100139.44;5017496;28;20312;-64
2023/03/26 09:13:53;;;;;;;;;;;;;;;7.96;100.00;100133.16;5015956;28;20044;-64
2023/03/26 09:16:47;;;;;;;;;;;;;;;7.99;100.00;100140.75;5021874;28;20306;-64
2023/03/26 09:19:27;;;;;;;;;;;;;;;7.99;100.00;100138.09;5027711;28;19975;-64
2023/03/26 09:22:25;;;;;;;;;;;;;;;7.99;100.00;100138.94;5026408;28;19940;-64
2023/03/26 09:25:09;;;;;;;;;;;;;;;8.01;100.00;100136.94;4994114;28;19917;-64
2023/03/26 09:27:36;;;;;;;;;;;;;;;8.01;100.00;100139.59;5031184;28;19935;-64
2023/03/26 09:30:16;;;;;;;;;;;;;;;8.01;100.00;100134.28;5021922;28;19917;-64
2023/03/26 09:33:06;;;;;;;;;;;;;;;8.03;100.00;100134.94;5025111;28;19979;-64
2023/03/26 09:35:31;;;;;;;;;;;;;;;8.05;100.00;100134.78;5023869;28;20392;-64
2023/03/26 09:38:10;;;;;;;;;;;;;;;8.06;100.00;100131.97;5026856;28;20477;-64
2023/03/26 09:40:35;;;;;;;;;;;;;;;8.08;100.00;100134.44;5023817;28;20391;-64
2023/03/26 09:43:06;;;;;;;;;;;;;;;8.10;100.00;100129.00;5021417;28;19913;-64
2023/03/26 09:45:40;;;;;;;;;;;;;;;8.07;100.00;100128.31;5025261;28;19949;-64
2023/03/26 09:48:28;;;;;;;;;;;;;;;8.16;100.00;100125.66;5024849;28;19959;-63
2023/03/26 09:51:02;;;;;;;;;;;;;;;8.20;100.00;100130.44;5026124;28;19920;-64
2023/03/26 09:53:38;;;;;;;;;;;;;;;8.27;100.00;100136.66;5028068;28;20440;-64
2023/03/26 09:56:23;;;;;;;;;;;;;;;8.35;100.00;100127.88;5026027;28;19960;-64
2023/03/26 09:59:07;;;;;;;;;;;;;;;8.44;100.00;100128.69;5024565;28;19917;-64
2023/03/26 10:01:41;;;;;;;;;;;;;;;8.51;100.00;100134.91;5024348;28;19919;-64
2023/03/26 10:04:06;;;;;;;;;;;;;;;8.58;100.00;100128.75;5029189;28;19987;-64
2023/03/26 10:06:55;;;;;;;;;;;;;;;8.65;100.00;100134.16;5023473;28;19917;-64
2023/03/26 10:09:20;;;;;;;;;;;;;;;8.68;100.00;100132.00;5022012;28;19940;-64
2023/03/26 10:12:00;;;;;;;;;;;;;;;8.74;100.00;100130.47;5020118;28;19913;-64
2023/03/26 10:14:45;;;;;;;;;;;;;;;8.80;100.00;100129.78;5029787;28;20406;-64
2023/03/26 10:17:19;;;;;;;;;;;;;;;8.84;100.00;100128.41;5024727;28;20751;-64
2023/03/26 10:20:06;;;;;;;;;;;;;;;8.90;100.00;100133.00;5027752;28;19927;-64
2023/03/26 10:22:50;;;;;;;;;;;;;;;8.94;100.00;100136.94;5024047;28;20012;-64
2023/03/26 10:25:35;;;;;;;;;;;;;;;8.96;99.62;100134.09;5026687;28;19990;-64
2023/03/26 10:28:17;;;;;;;;;;;;;;;8.99;99.51;100139.06;5024608;28;19925;-65
2023/03/26 10:30:50;;;;;;;;;;;;;;;9.04;98.89;100138.53;5026296;28;19963;-64
2023/03/26 10:33:16;;;;;;;;;;;;;;;9.08;99.33;100143.28;5017504;28;19975;-64
2023/03/26 10:35:50;;;;;;;;;;;;;;;9.13;98.95;100140.13;5019822;28;19960;-64
2023/03/26 10:38:21;;;;;;;;;;;;;;;9.18;98.72;100143.03;5018098;28;19927;-64
2023/03/26 10:40:56;;;;;;;;;;;;;;;9.15;98.94;100130.16;5025458;28;19924;-64
2023/03/26 10:43:39;;;;;;;;;;;;;;;9.23;98.44;100138.03;5021929;28;19917;-64
2023/03/26 10:46:24;;;;;;;;;;;;;;;9.26;98.23;100140.34;5025148;28;19913;-65
2023/03/26 10:48:49;;;;;;;;;;;;;;;9.28;98.09;100148.94;5019551;28;19921;-64
2023/03/26 10:51:33;;;;;;;;;;;;;;;9.33;98.18;100149.22;5024813;28;19927;-64
2023/03/26 10:54:06;;;;;;;;;;;;;;;9.35;98.14;100155.16;5024688;28;20302;-65
2023/03/26 10:56:34;;;;;;;;;;;;;;;9.35;97.57;100144.56;5022094;28;19917;-65
2023/03/26 10:59:04;;;;;;;;;;;;;;;9.37;97.36;100149.69;5015972;28;19918;-65
2023/03/26 11:01:36;;;;;;;;;;;;;;;9.38;97.19;100146.03;5016210;28;19920;-64
2023/03/26 11:04:27;;;;;;;;;;;;;;;9.40;97.48;100150.13;5023939;28;19921;-64
2023/03/26 11:07:02;;;;;;;;;;;;;;;9.42;97.22;100156.09;5000711;28;19940;-64
2023/03/26 11:09:30;;;;;;;;;;;;;;;9.43;97.13;100160.38;5025885;28;19918;-65
2023/03/26 11:12:01;;;;;;;;;;;;;;;9.43;97.12;100155.06;5024747;28;19917;-64
2023/03/26 11:14:38;;;;;;;;;;;;;;;9.44;97.05;100159.38;5027275;28;19921;-64
2023/03/26 11:17:03;;;;;;;;;;;;;;;9.44;96.76;100162.03;5021137;28;20406;-64
2023/03/26 11:19:29;;;;;;;;;;;;;;;9.45;96.63;100160.19;5019931;28;20382;-64
2023/03/26 11:21:59;;;;;;;;;;;;;;;9.47;96.78;100163.50;5017314;28;20403;-65
2023/03/26 11:24:24;;;;;;;;;;;;;;;9.47;96.73;100161.66;5023964;28;19922;-65
2023/03/26 11:26:51;;;;;;;;;;;;;;;9.48;96.33;100167.78;5026498;28;19917;-64
2023/03/26 11:29:22;;;;;;;;;;;;;;;9.50;96.08;100171.06;5014323;28;19960;-65
2023/03/26 11:32:17;;;;;;;;;;;;;;;9.52;96.33;100169.06;5018115;28;20063;-64
2023/03/26 11:35:12;;;;;;;;;;;;;;;9.52;96.29;100169.88;5004521;28;20023;-64
2023/03/26 11:37:39;;;;;;;;;;;;;;;9.55;96.27;100179.34;5000452;28;19914;-65
2023/03/26 11:40:10;;;;;;;;;;;;;;;9.56;95.93;100176.50;5027455;28;19936;-65
2023/03/26 11:42:35;;;;;;;;;;;;;;;9.55;96.15;100179.34;5017155;28;20442;-65
2023/03/26 11:45:03;;;;;;;;;;;;;;;9.55;95.90;100177.50;5025454;28;20777;-64
2023/03/26 11:47:39;;;;;;;;;;;;;;;9.56;95.76;100184.47;5021724;28;19964;-64
2023/03/26 11:50:05;;;;;;;;;;;;;;;9.58;95.84;100177.16;5026037;28;19972;-65
2023/03/26 11:52:31;;;;;;;;;;;;;;;9.61;95.93;100181.25;5020935;28;19921;-64
2023/03/26 11:54:58;;;;;;;;;;;;;;;9.62;96.23;100181.09;5028695;28;19920;-65
2023/03/26 11:57:29;;;;;;;;;;;;;;;9.65;96.34;100185.19;5017019;28;19959;-64
2023/03/26 12:00:15;;;;;;;;;;;;;;;9.68;96.08;100181.34;5022384;28;19921;-64
2023/03/26 12:02:40;;;;;;;;;;;;;;;9.73;96.01;100185.09;5019317;28;19917;-64
2023/03/26 12:05:14;;;;;;;;;;;;;;;9.79;96.31;100192.31;5020331;28;20445;-64
2023/03/26 12:07:51;;;;;;;;;;;;;;;9.83;96.17;100190.13;5026063;28;19940;-64
2023/03/26 12:10:25;;;;;;;;;;;;;;;9.87;96.24;100192.28;5018899;28;19984;-65
2023/03/26 12:12:52;;;;;;;;;;;;;;;9.91;96.48;100192.72;5020320;28;19970;-63
2023/03/26 12:15:19;;;;;;;;;;;;;;;9.92;96.05;100189.88;5009469;28;19918;-64
2023/03/26 12:17:51;;;;;;;;;;;;;;;9.95;96.26;100194.00;5018363;28;19922;-64
2023/03/26 12:20:23;;;;;;;;;;;;;;;9.95;95.62;100194.00;5020375;28;19932;-65
2023/03/26 12:22:50;;;;;;;;;;;;;;;9.95;95.67;100196.66;5020778;28;20500;-65
2023/03/26 12:25:16;;;;;;;;;;;;;;;9.96;95.39;100200.94;5020320;28;19921;-65
2023/03/26 12:27:47;;;;;;;;;;;;;;;9.98;94.84;100198.94;5024726;28;19921;-64
2023/03/26 12:30:21;;;;;;;;;;;;;;;9.98;94.30;100201.59;5027996;28;19920;-64
2023/03/26 12:32:48;;;;;;;;;;;;;;;10.00;94.70;100196.94;5021904;28;19920;-64
2023/03/26 12:35:17;;;;;;;;;;;;;;;10.02;94.37;100202.03;5018156;28;20521;-64
2023/03/26 12:37:43;;;;;;;;;;;;;;;10.07;94.29;100205.78;5021368;28;19928;-64
2023/03/26 12:40:20;;;;;;;;;;;;;;;10.16;94.16;100210.03;5021127;28;19917;-65
2023/03/26 12:42:50;;;;;;;;;;;;;;;10.23;93.86;100210.13;5019998;28;20008;-64
2023/03/26 12:45:18;;;;;;;;;;;;;;;10.32;93.27;100211.69;5024777;28;19924;-64
2023/03/26 12:47:44;;;;;;;;;;;;;;;10.44;93.08;100212.06;5028689;28;19964;-65
2023/03/26 12:50:14;;;;;;;;;;;;;;;10.57;92.65;100217.50;5020798;28;20143;-64
2023/03/26 12:52:39;;;;;;;;;;;;;;;10.73;92.53;100224.47;5019367;28;19943;-64